LYBE/BEG METAR and TAF weather

Enter ICAO airport designator
Station Type Date Time Source
LYBE METAR 2021/10/20 07:30 UTC NOAA

LYBE 200730Z 12003KT 080V170 8000 NSC 10/07 Q1026 NOSIG


Station Type Date Time Source
LYBE Decoded METAR 2021/10/20 07:30 UTC NOAA

Beograd / Surcin, Serbia and Montenegro (LYBE) 44-49N 020-17E 99M
Oct 20, 2021 - 03:30 AM EDT / 2021.10.20 0730 UTC
Wind: from the ESE (120 degrees) at 3 MPH (3 KT) (direction variable):0
Visibility: 4 mile(s):0
Temperature: 50 F (10 C)
Dew Point: 44 F (7 C)
Relative Humidity: 81%
Pressure (altimeter): 30.30 in. Hg (1026 hPa)
ob: LYBE 200730Z 12003KT 080V170 8000 NSC 10/07 Q1026 NOSIG
cycle: 7

Station Type Date Time Source
LYBE TAF 2021/10/20 06:25 UTC NOAA

TAF LYBE 200500Z 2006/2106 14005KT 3000 BR NSC TX21/2013Z TN05/2006Z
TEMPO 2006/2007 0700 FG
BECMG 2006/2008 8000 NSC

Example: see airport list